createdAt,value
2018-09-30T00:00:15.160Z,0.00
2018-09-30T00:01:15.329Z,0.00
2018-09-30T00:02:15.508Z,0.00
2018-09-30T00:03:15.673Z,0.00
2018-09-30T00:04:15.852Z,0.00
2018-09-30T00:05:16.035Z,0.00
2018-09-30T00:06:16.194Z,0.00
2018-09-30T00:07:16.370Z,0.00
2018-09-30T00:08:16.542Z,0.00
2018-09-30T00:09:16.715Z,0.00
2018-09-30T00:10:16.883Z,0.00
2018-09-30T00:11:17.060Z,0.00
2018-09-30T00:12:17.234Z,0.00
2018-09-30T00:13:17.418Z,0.00
2018-09-30T00:14:17.588Z,0.00
2018-09-30T00:15:17.743Z,0.00
2018-09-30T00:16:17.920Z,0.00
2018-09-30T00:17:18.104Z,0.00
2018-09-30T00:18:18.274Z,0.00
2018-09-30T00:19:18.437Z,0.00
2018-09-30T00:20:18.613Z,0.00
2018-09-30T00:21:18.784Z,0.00
2018-09-30T00:22:18.962Z,0.00
2018-09-30T00:23:19.139Z,0.00
2018-09-30T00:24:19.319Z,0.00
2018-09-30T00:25:19.485Z,0.00
2018-09-30T00:26:19.650Z,0.00
2018-09-30T00:27:19.832Z,0.00
2018-09-30T00:28:20.005Z,0.00
2018-09-30T00:29:20.181Z,0.00
2018-09-30T00:30:20.351Z,0.00
2018-09-30T00:31:20.521Z,0.00
2018-09-30T00:32:20.696Z,0.00
2018-09-30T00:33:20.870Z,0.00
2018-09-30T00:34:21.044Z,0.00
2018-09-30T00:35:21.217Z,0.00
2018-09-30T00:36:21.426Z,0.00
2018-09-30T00:37:21.566Z,0.00
2018-09-30T00:38:21.756Z,0.00
2018-09-30T00:39:21.914Z,0.00
2018-09-30T00:40:22.095Z,0.00
2018-09-30T00:41:22.259Z,0.00
2018-09-30T00:42:22.435Z,0.00
2018-09-30T00:43:22.604Z,0.00
2018-09-30T00:44:22.776Z,0.00
2018-09-30T00:45:22.962Z,0.00
2018-09-30T00:46:23.110Z,0.00
2018-09-30T00:47:23.278Z,0.00
2018-09-30T00:48:23.457Z,0.00
2018-09-30T00:49:23.629Z,0.00
2018-09-30T00:50:23.802Z,0.00
2018-09-30T00:51:23.973Z,0.00
2018-09-30T00:52:24.149Z,0.00
2018-09-30T00:53:24.318Z,0.00
2018-09-30T00:54:24.496Z,0.00
2018-09-30T00:55:24.665Z,0.00
2018-09-30T00:56:24.839Z,0.00
2018-09-30T00:57:25.024Z,0.00
2018-09-30T00:58:25.189Z,0.00
2018-09-30T00:59:25.365Z,0.00
2018-09-30T01:00:25.537Z,0.00
2018-09-30T01:01:25.723Z,0.00
2018-09-30T01:02:25.885Z,0.00
2018-09-30T01:03:26.056Z,0.00
2018-09-30T01:04:26.229Z,0.00
2018-09-30T01:05:26.400Z,0.00
2018-09-30T01:06:26.573Z,0.00
2018-09-30T01:07:26.749Z,0.00
2018-09-30T01:08:26.922Z,0.00
2018-09-30T01:09:27.095Z,0.00
2018-09-30T01:10:27.271Z,0.00
2018-09-30T01:11:27.443Z,0.00
2018-09-30T01:12:27.620Z,0.00
2018-09-30T01:13:27.793Z,0.00
2018-09-30T01:14:27.961Z,0.00
2018-09-30T01:15:28.136Z,0.00
2018-09-30T01:16:28.308Z,0.00
2018-09-30T01:17:28.482Z,0.00
2018-09-30T01:18:28.650Z,0.00
2018-09-30T01:19:28.825Z,0.00
2018-09-30T01:20:28.998Z,0.00
2018-09-30T01:21:29.179Z,0.00
2018-09-30T01:22:29.346Z,0.00
2018-09-30T01:23:29.520Z,0.00
2018-09-30T01:24:29.690Z,0.00
2018-09-30T01:25:29.863Z,0.00
2018-09-30T01:26:30.039Z,0.00
2018-09-30T01:27:30.210Z,0.00
2018-09-30T01:28:30.383Z,0.00
2018-09-30T01:29:30.556Z,0.00
2018-09-30T01:30:30.727Z,0.00
2018-09-30T01:31:30.902Z,0.00
2018-09-30T01:32:31.073Z,0.00
2018-09-30T01:33:31.247Z,0.00
2018-09-30T01:34:31.418Z,0.00
2018-09-30T01:35:31.593Z,0.00
2018-09-30T01:36:31.767Z,0.00
2018-09-30T01:37:31.938Z,0.00
2018-09-30T01:38:32.112Z,0.00
2018-09-30T01:39:32.286Z,0.00
2018-09-30T01:40:32.461Z,0.00
2018-09-30T01:41:32.632Z,0.00
2018-09-30T01:42:32.806Z,0.00
2018-09-30T01:43:32.977Z,0.00
2018-09-30T01:44:33.148Z,0.00
2018-09-30T01:45:33.319Z,0.00
2018-09-30T01:46:33.500Z,0.00
2018-09-30T01:47:33.670Z,0.00
2018-09-30T01:48:33.833Z,0.00
2018-09-30T01:49:34.015Z,0.00
2018-09-30T01:50:34.179Z,0.00
2018-09-30T01:51:34.351Z,0.00
2018-09-30T01:52:34.532Z,0.00
2018-09-30T01:53:34.702Z,0.00
2018-09-30T01:54:34.883Z,0.00
2018-09-30T01:55:35.046Z,0.00
2018-09-30T01:56:35.215Z,0.00
2018-09-30T01:57:35.380Z,0.00
2018-09-30T01:58:35.553Z,0.00
2018-09-30T01:59:35.728Z,0.00
2018-09-30T02:00:35.906Z,0.00
2018-09-30T02:01:36.072Z,0.00
2018-09-30T02:02:36.243Z,0.00
2018-09-30T02:03:36.416Z,0.00
2018-09-30T02:04:36.586Z,0.00
2018-09-30T02:05:36.759Z,0.00
2018-09-30T02:06:36.937Z,0.00
2018-09-30T02:07:37.112Z,0.00
2018-09-30T02:08:37.280Z,0.00
2018-09-30T02:09:37.455Z,0.00
2018-09-30T02:10:37.628Z,0.00
2018-09-30T02:11:37.801Z,0.00
2018-09-30T02:12:37.971Z,0.00
2018-09-30T02:13:38.143Z,0.00
2018-09-30T02:14:38.320Z,0.00
2018-09-30T02:15:38.492Z,0.00
2018-09-30T02:16:38.665Z,0.00
2018-09-30T02:17:38.836Z,0.00
2018-09-30T02:18:39.008Z,0.00
2018-09-30T02:19:39.182Z,0.00
2018-09-30T02:20:39.352Z,0.00
2018-09-30T02:21:39.530Z,0.00
2018-09-30T02:22:39.702Z,0.00
2018-09-30T02:23:39.876Z,0.00
2018-09-30T02:24:40.048Z,0.00
2018-09-30T02:25:40.230Z,0.00
2018-09-30T02:26:40.392Z,0.00
2018-09-30T02:27:40.564Z,0.00
2018-09-30T02:28:40.739Z,0.00
2018-09-30T02:29:40.914Z,0.00
2018-09-30T02:30:41.088Z,0.00
2018-09-30T02:31:41.262Z,0.00
2018-09-30T02:32:41.442Z,0.00
2018-09-30T02:33:41.605Z,0.00
2018-09-30T02:34:41.778Z,0.00
2018-09-30T02:35:41.952Z,0.00
2018-09-30T02:36:42.126Z,0.00
2018-09-30T02:37:42.299Z,0.00
2018-09-30T02:38:42.478Z,0.00
2018-09-30T02:39:42.641Z,0.00
2018-09-30T02:40:42.814Z,0.00
2018-09-30T02:41:42.986Z,0.00
2018-09-30T02:42:43.159Z,0.00
2018-09-30T02:43:43.335Z,0.00
2018-09-30T02:44:43.508Z,0.00
2018-09-30T02:45:43.684Z,0.00
2018-09-30T02:46:43.855Z,0.00
2018-09-30T02:47:44.029Z,0.00
2018-09-30T02:48:44.204Z,0.00
2018-09-30T02:49:44.373Z,0.00
2018-09-30T02:50:44.546Z,0.00
2018-09-30T02:51:44.715Z,0.00
2018-09-30T02:52:44.893Z,0.00
2018-09-30T02:53:45.062Z,0.00
2018-09-30T02:54:45.233Z,0.00
2018-09-30T02:55:45.405Z,0.00
2018-09-30T02:56:45.576Z,0.00
2018-09-30T02:57:45.749Z,0.00
2018-09-30T02:58:45.927Z,0.00
2018-09-30T02:59:46.097Z,0.00
2018-09-30T03:00:46.271Z,0.00
2018-09-30T03:01:46.448Z,0.00
2018-09-30T03:02:46.628Z,0.00
2018-09-30T03:03:46.792Z,0.00
2018-09-30T03:04:46.973Z,0.00
2018-09-30T03:05:47.134Z,0.00
2018-09-30T03:06:47.308Z,0.00
2018-09-30T03:07:47.521Z,0.00
2018-09-30T03:08:47.651Z,0.00
2018-09-30T03:09:47.821Z,0.00
2018-09-30T03:10:47.988Z,0.00
2018-09-30T03:11:48.164Z,0.00
2018-09-30T03:12:48.332Z,0.00
2018-09-30T03:13:48.508Z,0.00
2018-09-30T03:14:48.679Z,0.00
2018-09-30T03:15:48.843Z,0.00
2018-09-30T03:16:49.021Z,0.00
2018-09-30T03:17:49.190Z,0.00
2018-09-30T03:18:49.364Z,0.00
2018-09-30T03:19:49.534Z,0.00
2018-09-30T03:20:49.705Z,0.00
2018-09-30T03:21:49.880Z,0.00
2018-09-30T03:22:50.051Z,0.00
2018-09-30T03:23:50.226Z,0.00
2018-09-30T03:24:50.401Z,0.00
2018-09-30T03:25:50.571Z,0.00
2018-09-30T03:26:50.745Z,0.00
2018-09-30T03:27:50.914Z,0.00
2018-09-30T03:28:51.095Z,0.00
2018-09-30T03:29:51.262Z,0.00
2018-09-30T03:30:51.433Z,0.00
2018-09-30T03:31:51.606Z,0.00
2018-09-30T03:32:51.779Z,0.00
2018-09-30T03:33:51.953Z,0.00
2018-09-30T03:34:52.121Z,0.00
2018-09-30T03:35:52.294Z,0.00
2018-09-30T03:36:52.471Z,0.00
2018-09-30T03:37:52.640Z,0.00
2018-09-30T03:38:52.815Z,0.00
2018-09-30T03:39:52.992Z,0.00
2018-09-30T03:40:53.158Z,0.00
2018-09-30T03:41:53.327Z,0.00
2018-09-30T03:42:53.502Z,0.00
2018-09-30T03:43:53.676Z,0.00
2018-09-30T03:44:53.845Z,0.00
2018-09-30T03:45:54.015Z,0.00
2018-09-30T03:46:54.180Z,0.00
2018-09-30T03:47:54.361Z,0.00
2018-09-30T03:48:54.530Z,0.00
2018-09-30T03:49:54.704Z,0.00
2018-09-30T03:50:54.878Z,0.00
2018-09-30T03:51:55.047Z,0.00
2018-09-30T03:52:55.225Z,0.00
2018-09-30T03:53:55.388Z,0.00
2018-09-30T03:54:55.563Z,0.00
2018-09-30T03:55:55.736Z,0.00
2018-09-30T03:56:55.912Z,0.00
2018-09-30T03:57:56.084Z,0.00
2018-09-30T03:58:56.246Z,0.00
2018-09-30T03:59:56.407Z,0.00
2018-09-30T04:00:56.581Z,0.00
2018-09-30T04:01:56.752Z,0.00
2018-09-30T04:02:56.933Z,0.00
2018-09-30T04:03:57.094Z,0.00
2018-09-30T04:04:57.266Z,0.00
2018-09-30T04:05:57.429Z,0.00
2018-09-30T04:06:57.602Z,0.00
2018-09-30T04:07:57.774Z,0.00
2018-09-30T04:08:57.943Z,0.00
2018-09-30T04:09:58.139Z,0.00
2018-09-30T04:10:58.286Z,0.00
2018-09-30T04:11:58.461Z,0.00
2018-09-30T04:12:58.633Z,0.00
2018-09-30T04:13:58.802Z,0.00
2018-09-30T04:14:58.972Z,0.00
2018-09-30T04:15:59.144Z,0.00
2018-09-30T04:16:59.483Z,0.00
2018-09-30T04:17:59.489Z,0.00
2018-09-30T04:18:59.659Z,0.00
2018-09-30T04:19:59.832Z,0.00
2018-09-30T04:21:00.006Z,0.00
2018-09-30T04:22:00.185Z,0.00
2018-09-30T04:23:00.350Z,0.00
2018-09-30T04:24:00.530Z,0.00
2018-09-30T04:25:00.692Z,0.00
2018-09-30T04:26:00.868Z,0.00
2018-09-30T04:27:01.035Z,0.00
2018-09-30T04:28:01.204Z,0.00
2018-09-30T04:29:01.388Z,0.00
2018-09-30T04:30:01.552Z,0.00
2018-09-30T04:31:01.719Z,0.00
2018-09-30T04:32:01.890Z,0.00
2018-09-30T04:33:02.061Z,0.00
2018-09-30T04:34:02.231Z,0.00
2018-09-30T04:35:02.405Z,0.00
2018-09-30T04:36:02.579Z,0.00
2018-09-30T04:37:02.753Z,0.00
2018-09-30T04:38:02.926Z,0.00
2018-09-30T04:39:03.104Z,0.00
2018-09-30T04:40:03.267Z,0.00
2018-09-30T04:41:03.443Z,0.00
2018-09-30T04:42:03.613Z,0.00
2018-09-30T04:43:03.786Z,0.00
2018-09-30T04:44:03.963Z,0.00
2018-09-30T04:45:04.135Z,4.00
2018-09-30T04:46:04.307Z,4.00
2018-09-30T04:47:04.480Z,0.00
2018-09-30T04:48:04.652Z,0.00
2018-09-30T04:49:04.824Z,4.00
2018-09-30T04:50:05.061Z,0.00
2018-09-30T04:51:05.170Z,4.00
2018-09-30T04:52:05.347Z,4.00
2018-09-30T04:53:05.510Z,8.00
2018-09-30T04:54:05.681Z,4.00
2018-09-30T04:55:05.853Z,8.00
2018-09-30T04:56:06.034Z,8.00
2018-09-30T04:57:06.199Z,8.00
2018-09-30T04:58:06.380Z,12.00
2018-09-30T04:59:06.541Z,16.00
2018-09-30T05:00:06.713Z,16.00
2018-09-30T05:01:06.886Z,20.00
2018-09-30T05:02:07.065Z,20.00
2018-09-30T05:03:07.230Z,20.00
2018-09-30T05:04:07.405Z,20.00
2018-09-30T05:05:07.569Z,24.00
2018-09-30T05:06:07.748Z,32.00
2018-09-30T05:07:07.917Z,36.00
2018-09-30T05:08:08.092Z,36.00
2018-09-30T05:09:08.258Z,48.00
2018-09-30T05:10:08.433Z,52.00
2018-09-30T05:11:08.607Z,60.00
2018-09-30T05:12:08.780Z,64.00
2018-09-30T05:13:08.958Z,72.00
2018-09-30T05:14:09.126Z,80.00
2018-09-30T05:15:09.293Z,80.00
2018-09-30T05:16:09.655Z,84.00
2018-09-30T05:17:09.647Z,96.00
2018-09-30T05:18:09.801Z,104.00
2018-09-30T05:19:09.976Z,112.00
2018-09-30T05:20:10.135Z,124.00
2018-09-30T05:21:10.305Z,136.00
2018-09-30T05:22:10.485Z,144.00
2018-09-30T05:23:10.651Z,156.00
2018-09-30T05:24:10.825Z,156.00
2018-09-30T05:25:11.005Z,168.00
2018-09-30T05:26:11.169Z,176.00
2018-09-30T05:27:11.340Z,180.00
2018-09-30T05:28:11.514Z,184.00
2018-09-30T05:29:11.686Z,188.00
2018-09-30T05:30:11.855Z,196.00
2018-09-30T05:31:12.072Z,196.00
2018-09-30T05:32:12.205Z,200.00
2018-09-30T05:33:12.376Z,212.00
2018-09-30T05:34:12.553Z,228.00
2018-09-30T05:35:12.722Z,236.00
2018-09-30T05:36:12.891Z,260.00
2018-09-30T05:37:13.136Z,280.00
2018-09-30T05:38:13.236Z,284.00
2018-09-30T05:39:13.405Z,292.00
2018-09-30T05:40:13.574Z,304.00
2018-09-30T05:41:13.747Z,348.00
2018-09-30T05:42:13.921Z,400.00
2018-09-30T05:43:14.097Z,448.00
2018-09-30T05:44:14.264Z,460.00
2018-09-30T05:45:14.438Z,508.00
2018-09-30T05:46:14.622Z,560.00
2018-09-30T05:47:14.781Z,568.00
2018-09-30T05:48:14.950Z,624.00
2018-09-30T05:49:15.203Z,652.00
2018-09-30T05:50:15.293Z,668.00
2018-09-30T05:51:15.465Z,660.00
2018-09-30T05:52:15.639Z,700.00
2018-09-30T05:53:15.816Z,688.00
2018-09-30T05:54:15.997Z,712.00
2018-09-30T05:55:16.170Z,704.00
2018-09-30T05:56:16.333Z,712.00
2018-09-30T05:57:16.528Z,760.00
2018-09-30T05:58:16.701Z,824.00
2018-09-30T05:59:16.871Z,880.00
2018-09-30T06:00:17.042Z,952.00
2018-09-30T06:01:17.215Z,992.00
2018-09-30T06:02:17.385Z,1012.00
2018-09-30T06:03:17.559Z,1176.00
2018-09-30T06:04:17.736Z,1380.00
2018-09-30T06:05:17.904Z,1500.00
2018-09-30T06:06:18.074Z,1604.00
2018-09-30T06:07:18.246Z,1696.00
2018-09-30T06:08:18.421Z,1788.00
2018-09-30T06:09:18.667Z,1888.00
2018-09-30T06:10:18.766Z,1980.00
2018-09-30T06:11:18.966Z,2032.00
2018-09-30T06:12:19.137Z,2108.00
2018-09-30T06:13:19.308Z,2192.00
2018-09-30T06:14:19.630Z,1944.00
2018-09-30T06:15:19.654Z,1840.00
2018-09-30T06:16:19.829Z,1804.00
2018-09-30T06:17:19.998Z,1656.00
2018-09-30T06:18:20.187Z,1696.00
2018-09-30T06:19:20.337Z,1688.00
2018-09-30T06:20:20.514Z,1692.00
2018-09-30T06:21:20.688Z,1736.00
2018-09-30T06:22:20.853Z,1648.00
2018-09-30T06:23:21.024Z,1596.00
2018-09-30T06:24:21.192Z,1596.00
2018-09-30T06:25:21.366Z,1600.00
2018-09-30T06:26:21.541Z,1724.00
2018-09-30T06:27:21.714Z,1896.00
2018-09-30T06:28:21.880Z,2088.00
2018-09-30T06:29:22.049Z,2308.00
2018-09-30T06:30:22.223Z,2524.00
2018-09-30T06:31:22.392Z,2728.00
2018-09-30T06:32:22.565Z,2916.00
2018-09-30T06:33:22.740Z,3160.00
2018-09-30T06:34:22.934Z,3368.00
2018-09-30T06:35:23.087Z,3500.00
2018-09-30T06:36:23.246Z,3656.00
2018-09-30T06:37:23.504Z,3936.00
2018-09-30T06:38:23.601Z,4224.00
2018-09-30T06:39:23.769Z,4344.00
2018-09-30T06:40:24.005Z,4104.00
2018-09-30T06:41:24.110Z,4080.00
2018-09-30T06:42:24.298Z,4108.00
2018-09-30T06:43:24.458Z,4180.00
2018-09-30T06:44:24.627Z,4476.00
2018-09-30T06:45:24.899Z,4388.00
2018-09-30T06:46:24.976Z,4088.00
2018-09-30T06:47:25.144Z,3796.00
2018-09-30T06:48:25.322Z,3900.00
2018-09-30T06:49:25.488Z,3988.00
2018-09-30T06:50:25.667Z,4344.00
2018-09-30T06:51:25.836Z,4776.00
2018-09-30T06:52:26.012Z,4640.00
2018-09-30T06:53:26.187Z,4668.00
2018-09-30T06:54:26.362Z,4912.00
2018-09-30T06:55:26.537Z,5504.00
2018-09-30T06:56:26.708Z,7672.00
2018-09-30T06:57:26.881Z,9248.00
2018-09-30T06:58:27.052Z,11080.00
2018-09-30T06:59:27.227Z,13432.00
2018-09-30T07:00:27.414Z,13716.00
2018-09-30T07:01:27.569Z,12724.00
2018-09-30T07:02:27.744Z,12196.00
2018-09-30T07:03:29.370Z,11924.00
2018-09-30T07:04:28.050Z,11688.00
2018-09-30T07:05:28.208Z,11632.00
2018-09-30T07:06:28.398Z,11720.00
2018-09-30T07:07:28.804Z,11444.00
2018-09-30T07:08:28.802Z,11016.00
2018-09-30T07:09:28.981Z,10604.00
2018-09-30T07:10:29.095Z,10488.00
2018-09-30T07:11:29.272Z,10540.00
2018-09-30T07:12:29.442Z,10544.00
2018-09-30T07:13:29.611Z,10392.00
2018-09-30T07:14:29.790Z,10176.00
2018-09-30T07:15:29.964Z,9452.00
2018-09-30T07:16:30.141Z,8868.00
2018-09-30T07:17:30.323Z,8696.00
2018-09-30T07:18:30.494Z,8668.00
2018-09-30T07:19:30.671Z,8616.00
2018-09-30T07:20:30.841Z,8664.00
2018-09-30T07:21:31.023Z,8576.00
2018-09-30T07:22:31.248Z,8668.00
2018-09-30T07:23:31.369Z,8700.00
2018-09-30T07:24:31.557Z,8604.00
2018-09-30T07:25:31.714Z,8768.00
2018-09-30T07:26:31.906Z,8800.00
2018-09-30T07:27:32.089Z,8660.00
2018-09-30T07:28:32.258Z,8784.00
2018-09-30T07:29:32.437Z,8688.00
2018-09-30T07:30:32.625Z,8552.00
2018-09-30T07:31:32.792Z,8432.00
2018-09-30T07:32:32.967Z,8500.00
2018-09-30T07:34:33.333Z,8184.00
2018-09-30T07:35:33.507Z,8056.00
2018-09-30T07:36:33.684Z,8240.00
2018-09-30T07:37:33.855Z,8084.00
2018-09-30T07:38:34.032Z,8020.00
2018-09-30T07:39:34.237Z,7940.00
2018-09-30T07:40:34.402Z,7392.00
2018-09-30T07:41:34.567Z,7968.00
2018-09-30T07:42:34.750Z,7916.00
2018-09-30T07:43:34.923Z,7848.00
2018-09-30T07:44:35.096Z,7836.00
2018-09-30T07:45:35.279Z,7744.00
2018-09-30T07:46:35.533Z,7768.00
2018-09-30T07:47:35.672Z,7804.00
2018-09-30T07:48:35.846Z,7812.00
2018-09-30T07:49:36.019Z,7800.00
2018-09-30T07:50:36.200Z,7528.00
2018-09-30T07:51:36.384Z,7816.00
2018-09-30T07:52:36.604Z,7820.00
2018-09-30T07:53:36.751Z,7840.00
2018-09-30T07:54:36.920Z,7844.00
2018-09-30T07:55:37.105Z,7864.00
2018-09-30T07:56:37.273Z,7896.00
2018-09-30T07:57:37.449Z,7924.00
2018-09-30T07:58:37.630Z,7944.00
2018-09-30T07:59:37.827Z,7944.00
2018-09-30T08:00:37.988Z,7964.00
2018-09-30T08:01:38.167Z,8000.00
2018-09-30T08:02:38.345Z,8000.00
2018-09-30T08:03:38.528Z,8004.00
2018-09-30T08:04:38.706Z,8012.00
2018-09-30T08:05:38.891Z,8032.00
2018-09-30T08:06:39.061Z,8068.00
2018-09-30T08:07:39.244Z,8084.00
2018-09-30T08:08:39.808Z,8092.00
2018-09-30T08:09:39.610Z,8108.00
2018-09-30T08:10:39.784Z,8124.00
2018-09-30T08:11:39.959Z,8156.00
2018-09-30T08:12:40.136Z,8168.00
2018-09-30T08:13:40.316Z,8188.00
2018-09-30T08:14:40.496Z,8200.00
2018-09-30T08:15:40.674Z,8228.00
2018-09-30T08:16:40.911Z,8244.00
2018-09-30T08:17:41.043Z,8256.00
2018-09-30T08:18:41.218Z,8272.00
2018-09-30T08:19:41.390Z,8284.00
2018-09-30T08:20:41.578Z,8324.00
2018-09-30T08:21:41.765Z,8348.00
2018-09-30T08:22:41.956Z,8368.00
2018-09-30T08:23:42.124Z,8396.00
2018-09-30T08:24:42.301Z,8420.00
2018-09-30T08:25:42.479Z,8444.00
2018-09-30T08:26:42.659Z,8472.00
2018-09-30T08:27:42.846Z,8496.00
2018-09-30T08:28:43.017Z,8532.00
2018-09-30T08:29:43.208Z,8540.00
2018-09-30T08:30:43.447Z,8576.00
2018-09-30T08:31:43.557Z,8604.00
2018-09-30T08:32:43.737Z,8612.00
2018-09-30T08:33:43.927Z,8620.00
2018-09-30T08:34:44.154Z,8632.00
2018-09-30T08:35:44.276Z,8640.00
2018-09-30T08:36:44.459Z,8656.00
2018-09-30T08:37:44.631Z,8656.00
2018-09-30T08:38:45.293Z,8668.00
2018-09-30T08:39:45.150Z,8688.00
2018-09-30T08:40:45.154Z,8620.00
2018-09-30T08:41:45.343Z,8576.00
2018-09-30T08:42:45.525Z,8536.00
2018-09-30T08:43:45.745Z,8496.00
2018-09-30T08:44:45.888Z,8388.00
2018-09-30T08:45:46.131Z,8384.00
2018-09-30T08:46:46.301Z,8408.00
2018-09-30T08:47:46.495Z,8436.00
2018-09-30T08:48:46.613Z,8488.00
2018-09-30T08:49:46.804Z,8500.00
2018-09-30T08:50:46.991Z,8540.00
2018-09-30T08:51:47.165Z,8596.00
2018-09-30T08:52:47.340Z,8712.00
2018-09-30T08:53:47.530Z,8760.00
2018-09-30T08:54:47.713Z,8756.00
2018-09-30T08:55:47.960Z,8768.00
2018-09-30T08:56:48.081Z,8768.00
2018-09-30T08:57:48.259Z,8792.00
2018-09-30T08:58:48.457Z,8808.00
2018-09-30T08:59:48.616Z,8808.00
2018-09-30T09:00:48.801Z,8796.00
2018-09-30T09:01:48.996Z,8740.00
2018-09-30T09:02:49.168Z,8684.00
2018-09-30T09:03:49.347Z,8624.00
2018-09-30T09:04:49.528Z,8552.00
2018-09-30T09:05:49.713Z,8576.00
2018-09-30T09:06:49.885Z,8664.00
2018-09-30T09:07:50.071Z,8768.00
2018-09-30T09:08:50.268Z,8804.00
2018-09-30T09:09:50.467Z,8780.00
2018-09-30T09:10:50.622Z,8764.00
2018-09-30T09:11:50.810Z,8752.00
2018-09-30T09:12:50.987Z,8744.00
2018-09-30T09:13:51.170Z,8740.00
2018-09-30T09:14:51.361Z,8728.00
2018-09-30T09:15:51.619Z,8744.00
2018-09-30T09:16:51.707Z,8740.00
2018-09-30T09:17:51.892Z,8744.00
2018-09-30T09:18:52.082Z,8712.00
2018-09-30T09:19:52.269Z,8708.00
2018-09-30T09:20:52.459Z,8692.00
2018-09-30T09:21:52.643Z,8708.00
2018-09-30T09:22:52.882Z,8684.00
2018-09-30T09:23:53.003Z,8636.00
2018-09-30T09:24:53.191Z,8616.00
2018-09-30T09:25:53.379Z,8564.00
2018-09-30T09:26:53.562Z,8540.00
2018-09-30T09:27:53.751Z,8520.00
2018-09-30T09:28:53.932Z,8520.00
2018-09-30T09:29:54.241Z,8520.00
2018-09-30T09:30:54.399Z,8520.00
2018-09-30T09:31:54.545Z,8488.00
2018-09-30T09:32:54.789Z,8484.00
2018-09-30T09:33:55.023Z,8468.00
2018-09-30T09:34:55.236Z,8440.00
2018-09-30T09:35:55.305Z,8428.00
2018-09-30T09:36:55.482Z,8420.00
2018-09-30T09:37:55.624Z,8404.00
2018-09-30T09:38:55.800Z,8372.00
2018-09-30T09:39:55.994Z,8352.00
2018-09-30T09:40:56.173Z,8332.00
2018-09-30T09:41:56.347Z,8312.00
2018-09-30T09:42:56.544Z,8280.00
2018-09-30T09:43:56.736Z,8260.00
2018-09-30T09:44:56.916Z,8236.00
2018-09-30T09:45:57.108Z,8212.00
2018-09-30T09:46:57.303Z,8180.00
2018-09-30T09:47:57.478Z,8148.00
2018-09-30T09:48:57.667Z,8164.00
2018-09-30T09:49:57.862Z,8136.00
2018-09-30T09:50:58.049Z,8120.00
2018-09-30T09:51:58.229Z,8100.00
2018-09-30T09:52:58.411Z,8072.00
2018-09-30T09:53:58.611Z,8056.00
2018-09-30T09:54:58.786Z,8016.00
2018-09-30T09:55:58.976Z,7996.00
2018-09-30T09:56:59.167Z,7988.00
2018-09-30T09:57:59.347Z,7988.00
2018-09-30T09:58:59.711Z,7960.00
2018-09-30T09:59:59.721Z,7944.00
2018-09-30T10:00:59.915Z,7956.00
2018-09-30T10:02:00.108Z,7932.00
2018-09-30T10:03:00.276Z,7900.00
2018-09-30T10:04:00.460Z,7896.00
2018-09-30T10:05:00.672Z,7884.00
2018-09-30T10:06:00.836Z,7868.00
2018-09-30T10:07:01.023Z,7836.00
2018-09-30T10:08:01.203Z,7816.00
2018-09-30T10:09:01.384Z,7816.00
2018-09-30T10:10:01.571Z,7804.00
2018-09-30T10:11:01.756Z,7768.00
2018-09-30T10:12:01.944Z,7764.00
2018-09-30T10:13:02.161Z,7756.00
2018-09-30T10:14:02.315Z,7736.00
2018-09-30T10:15:02.496Z,7716.00
2018-09-30T10:16:02.686Z,7684.00
2018-09-30T10:17:02.867Z,7664.00
2018-09-30T10:18:03.061Z,7652.00
2018-09-30T10:19:03.245Z,7604.00
2018-09-30T10:20:03.448Z,7568.00
2018-09-30T10:21:03.628Z,7548.00
2018-09-30T10:22:03.814Z,7532.00
2018-09-30T10:23:03.984Z,7516.00
2018-09-30T10:24:04.157Z,7504.00
2018-09-30T10:25:04.351Z,7504.00
2018-09-30T10:26:04.535Z,7472.00
2018-09-30T10:27:04.718Z,7408.00
2018-09-30T10:28:04.905Z,7444.00
2018-09-30T10:29:05.113Z,7416.00
2018-09-30T10:30:05.293Z,7400.00
2018-09-30T10:31:05.479Z,7384.00
2018-09-30T10:32:05.672Z,7360.00
2018-09-30T10:33:05.859Z,7336.00
2018-09-30T10:34:06.090Z,7308.00
2018-09-30T10:35:06.233Z,7288.00
2018-09-30T10:36:06.409Z,7272.00
2018-09-30T10:37:06.604Z,7248.00
2018-09-30T10:38:06.785Z,7224.00
2018-09-30T10:39:07.093Z,7200.00
2018-09-30T10:40:07.146Z,7164.00
2018-09-30T10:41:07.333Z,7136.00
2018-09-30T10:42:07.543Z,7092.00
2018-09-30T10:43:07.712Z,7040.00
2018-09-30T10:44:07.914Z,7004.00
2018-09-30T10:45:08.069Z,6936.00
2018-09-30T10:46:08.267Z,6904.00
2018-09-30T10:47:08.472Z,6868.00
2018-09-30T10:48:08.649Z,6836.00
2018-09-30T10:49:08.841Z,6820.00
2018-09-30T10:50:09.021Z,6800.00
2018-09-30T10:51:09.208Z,6776.00
2018-09-30T10:52:09.394Z,6740.00
2018-09-30T10:53:09.580Z,6712.00
2018-09-30T10:54:09.770Z,6688.00
2018-09-30T10:55:09.967Z,6652.00
2018-09-30T10:56:10.159Z,6644.00
2018-09-30T10:57:10.344Z,6620.00
2018-09-30T10:58:10.524Z,6588.00
2018-09-30T10:59:10.713Z,6572.00
2018-09-30T11:00:10.899Z,6540.00
2018-09-30T11:01:11.105Z,6528.00
2018-09-30T11:02:11.273Z,6492.00
2018-09-30T11:03:11.463Z,6468.00
2018-09-30T11:04:11.647Z,6416.00
2018-09-30T11:05:11.835Z,6424.00
2018-09-30T11:06:12.011Z,6392.00
2018-09-30T11:07:12.208Z,6352.00
2018-09-30T11:08:12.391Z,6316.00
2018-09-30T11:09:12.580Z,6292.00
2018-09-30T11:10:12.867Z,6260.00
2018-09-30T11:11:12.957Z,6256.00
2018-09-30T11:12:13.129Z,6204.00
2018-09-30T11:13:13.337Z,6192.00
2018-09-30T11:14:13.509Z,6168.00
2018-09-30T11:15:13.701Z,6132.00
2018-09-30T11:16:13.974Z,6128.00
2018-09-30T11:17:14.070Z,6128.00
2018-09-30T11:18:14.266Z,6112.00
2018-09-30T11:19:14.439Z,6092.00
2018-09-30T11:20:14.611Z,6116.00
2018-09-30T11:21:14.827Z,6068.00
2018-09-30T11:22:15.040Z,6044.00
2018-09-30T11:23:15.158Z,6036.00
2018-09-30T11:24:15.355Z,6028.00
2018-09-30T11:25:15.533Z,6016.00
2018-09-30T11:26:15.720Z,6000.00
2018-09-30T11:27:15.901Z,5992.00
2018-09-30T11:28:16.092Z,5972.00
2018-09-30T11:29:16.297Z,5936.00
2018-09-30T11:30:16.468Z,5896.00
2018-09-30T11:31:16.656Z,5832.00
2018-09-30T11:32:16.855Z,5748.00
2018-09-30T11:33:17.037Z,5636.00
2018-09-30T11:34:17.220Z,5676.00
2018-09-30T11:35:17.410Z,5552.00
2018-09-30T11:36:18.374Z,5520.00
2018-09-30T11:37:17.778Z,5512.00
2018-09-30T11:38:17.960Z,5476.00
2018-09-30T11:39:18.146Z,5440.00
2018-09-30T11:40:18.326Z,5416.00
2018-09-30T11:41:18.512Z,5380.00
2018-09-30T11:42:18.702Z,5408.00
2018-09-30T11:43:18.891Z,5428.00
2018-09-30T11:44:19.068Z,5332.00
2018-09-30T11:45:19.256Z,5344.00
2018-09-30T11:46:19.448Z,5268.00
2018-09-30T11:47:19.626Z,5232.00
2018-09-30T11:48:19.813Z,5204.00
2018-09-30T11:49:19.995Z,5148.00
2018-09-30T11:50:20.177Z,5096.00
2018-09-30T11:51:20.346Z,5060.00
2018-09-30T11:52:20.537Z,5024.00
2018-09-30T11:53:20.745Z,5004.00
2018-09-30T11:54:20.895Z,5004.00
2018-09-30T11:55:21.091Z,4932.00
2018-09-30T11:56:21.258Z,5004.00
2018-09-30T11:57:21.443Z,4944.00
2018-09-30T11:58:21.647Z,4916.00
2018-09-30T11:59:21.800Z,4900.00
2018-09-30T12:00:21.985Z,4788.00
2018-09-30T12:01:22.251Z,4688.00
2018-09-30T12:02:22.385Z,4648.00
2018-09-30T12:03:22.506Z,4632.00
2018-09-30T12:04:22.690Z,4608.00
2018-09-30T12:05:22.875Z,4596.00
2018-09-30T12:06:23.062Z,4568.00
2018-09-30T12:07:23.230Z,4560.00
2018-09-30T12:08:23.413Z,4536.00
2018-09-30T12:09:23.597Z,4520.00
2018-09-30T12:10:23.779Z,4500.00
2018-09-30T12:11:23.960Z,4508.00
2018-09-30T12:12:24.189Z,4484.00
2018-09-30T12:13:24.330Z,4464.00
2018-09-30T12:14:24.512Z,4448.00
2018-09-30T12:15:24.695Z,4432.00
2018-09-30T12:16:24.877Z,4404.00
2018-09-30T12:17:25.075Z,4428.00
2018-09-30T12:18:25.265Z,4420.00
2018-09-30T12:19:25.449Z,4424.00
2018-09-30T12:20:25.638Z,4416.00
2018-09-30T12:21:25.807Z,4416.00
2018-09-30T12:22:25.985Z,4404.00
2018-09-30T12:23:26.181Z,4400.00
2018-09-30T12:24:26.371Z,4404.00
2018-09-30T12:25:26.554Z,4404.00
2018-09-30T12:26:26.736Z,4400.00
2018-09-30T12:27:26.912Z,4400.00
2018-09-30T12:28:27.097Z,4420.00
2018-09-30T12:29:27.279Z,4420.00
2018-09-30T12:30:27.471Z,4400.00
2018-09-30T12:31:27.647Z,4400.00
2018-09-30T12:32:27.849Z,4396.00
2018-09-30T12:33:28.013Z,4404.00
2018-09-30T12:34:28.189Z,4440.00
2018-09-30T12:35:28.372Z,4416.00
2018-09-30T12:36:28.549Z,4404.00
2018-09-30T12:37:28.736Z,4408.00